Time;durP1;ratioP1;P1;durP2;ratioP2;P2;SDS_P1;SDS_P2;PMS_P1;PMS_P2;Temp;Humidity;BMP_temperature;BMP_pressure;BME280_temperature;BME280_humidity;BME280_pressure;Samples;Min_cycle;Max_cycle;Signal;HPM_P1;HPM_P2
2021/12/29 00:00:04;;;;;;;81.68;20.38;;;6.70;99.90;;;;;;5118200;27;20043;-85
2021/12/29 00:02:29;;;;;;;100.82;21.10;;;6.60;99.90;;;;;;5115409;27;20051;-82
2021/12/29 00:04:55;;;;;;;78.63;18.17;;;6.60;99.90;;;;;;5120151;27;20054;-83
2021/12/29 00:07:21;;;;;;;109.63;21.45;;;6.50;99.90;;;;;;5105380;27;20047;-82
2021/12/29 00:09:47;;;;;;;93.47;19.90;;;6.50;99.90;;;;;;5087488;27;20066;-83
2021/12/29 00:12:14;;;;;;;113.10;20.52;;;6.50;99.90;;;;;;5122661;27;20035;-82
2021/12/29 00:14:40;;;;;;;129.05;22.10;;;6.50;99.90;;;;;;5092842;27;20035;-83
2021/12/29 00:17:06;;;;;;;114.28;22.35;;;6.40;99.90;;;;;;5096761;27;20050;-83
2021/12/29 00:19:32;;;;;;;114.95;23.45;;;6.50;99.90;;;;;;5114585;27;20034;-83
2021/12/29 00:21:58;;;;;;;147.52;23.33;;;6.40;99.90;;;;;;5100302;27;20050;-82
2021/12/29 00:24:24;;;;;;;126.35;21.70;;;6.40;99.90;;;;;;5133703;27;20043;-86
2021/12/29 00:26:49;;;;;;;136.80;22.98;;;6.40;99.90;;;;;;5092935;27;20070;-83
2021/12/29 00:29:16;;;;;;;116.82;21.77;;;6.40;99.90;;;;;;5097685;27;20047;-82
2021/12/29 00:31:41;;;;;;;136.93;22.58;;;6.30;99.90;;;;;;5097617;27;20038;-82
2021/12/29 00:34:07;;;;;;;117.38;20.58;;;6.30;99.90;;;;;;5119784;27;20118;-83
2021/12/29 00:36:33;;;;;;;117.05;21.35;;;6.30;99.90;;;;;;5119211;27;20133;-83
2021/12/29 00:38:58;;;;;;;120.50;21.70;;;6.30;99.90;;;;;;5134965;27;20064;-83
2021/12/29 00:41:24;;;;;;;120.45;21.85;;;6.40;99.90;;;;;;5099500;27;20047;-82
2021/12/29 00:43:50;;;;;;;114.38;21.60;;;6.30;99.90;;;;;;5128173;27;20057;-83
2021/12/29 00:46:17;;;;;;;134.75;22.48;;;6.50;99.90;;;;;;5119496;27;20034;-82
2021/12/29 00:48:45;;;;;;;127.82;21.70;;;6.50;99.90;;;;;;5103218;27;20039;-82
2021/12/29 00:51:12;;;;;;;122.38;22.05;;;6.60;99.90;;;;;;5134547;27;20539;-84
2021/12/29 00:53:39;;;;;;;151.40;25.48;;;6.70;99.90;;;;;;5096916;27;20039;-83
2021/12/29 00:56:05;;;;;;;126.35;23.67;;;6.70;99.90;;;;;;5117191;27;20070;-83
2021/12/29 00:58:31;;;;;;;168.27;25.10;;;6.80;99.90;;;;;;5092520;28;20459;-84
2021/12/29 01:00:58;;;;;;;207.90;32.60;;;6.90;99.90;;;;;;5107397;27;20034;-82
2021/12/29 01:03:24;;;;;;;246.80;29.85;;;6.90;99.90;;;;;;5074909;27;20050;-83
2021/12/29 01:05:50;;;;;;;252.38;26.85;;;6.90;99.90;;;;;;5101410;27;20043;-82
2021/12/29 01:08:16;;;;;;;265.27;25.90;;;6.80;99.90;;;;;;5132426;27;20039;-83
2021/12/29 01:10:43;;;;;;;285.50;23.67;;;6.80;99.90;;;;;;5079716;27;20059;-83
2021/12/29 01:13:11;;;;;;;218.35;22.13;;;6.60;99.90;;;;;;5131954;27;20090;-82
2021/12/29 01:16:15;;;;;;;197.55;22.65;;;6.60;99.90;;;;;;5109627;27;20371;-83
2021/12/29 01:18:43;;;;;;;145.00;20.73;;;6.50;99.90;;;;;;5113388;27;20422;-84
2021/12/29 01:21:10;;;;;;;124.38;20.05;;;6.50;99.90;;;;;;5111593;28;20115;-81
2021/12/29 01:23:36;;;;;;;123.30;19.92;;;6.50;99.90;;;;;;5105362;27;20085;-81
2021/12/29 01:26:02;;;;;;;102.20;19.42;;;6.60;99.90;;;;;;5116053;27;20126;-81
2021/12/29 01:28:28;;;;;;;108.72;20.52;;;6.60;99.90;;;;;;5122650;27;20035;-82
2021/12/29 01:30:54;;;;;;;123.97;20.60;;;6.70;99.90;;;;;;5121926;27;20054;-81
2021/12/29 01:33:21;;;;;;;108.72;18.92;;;6.70;99.90;;;;;;5135348;27;20051;-82
2021/12/29 01:35:46;;;;;;;98.00;17.75;;;6.60;99.90;;;;;;5108966;27;20383;-82
2021/12/29 01:38:12;;;;;;;111.07;19.15;;;6.60;99.90;;;;;;5135144;27;20052;-82
2021/12/29 01:40:39;;;;;;;101.70;20.38;;;6.60;99.90;;;;;;5105743;28;20137;-81
2021/12/29 01:43:07;;;;;;;93.03;20.05;;;6.70;99.90;;;;;;5096219;28;20055;-81
2021/12/29 01:45:34;;;;;;;77.03;18.25;;;6.70;99.90;;;;;;5115415;28;20043;-81
2021/12/29 01:48:01;;;;;;;73.60;18.85;;;6.70;99.90;;;;;;5112755;28;20035;-80
2021/12/29 01:50:29;;;;;;;54.65;16.00;;;6.70;99.90;;;;;;5109924;28;20056;-80
2021/12/29 01:53:01;;;;;;;45.30;14.73;;;6.70;99.90;;;;;;5114671;27;20055;-83
2021/12/29 01:55:27;;;;;;;53.08;14.95;;;6.80;99.90;;;;;;5119605;27;20082;-84
2021/12/29 01:57:54;;;;;;;55.85;15.45;;;6.90;99.90;;;;;;5118393;27;20095;-83
2021/12/29 02:00:23;;;;;;;51.60;15.30;;;6.80;99.90;;;;;;5117469;27;20416;-83
2021/12/29 02:02:49;;;;;;;50.30;15.10;;;6.70;99.90;;;;;;5117427;27;20058;-83
2021/12/29 02:05:16;;;;;;;61.78;16.38;;;6.70;99.90;;;;;;5087910;27;20447;-83
2021/12/29 02:07:42;;;;;;;44.65;13.27;;;6.70;99.90;;;;;;5090581;27;20073;-84
2021/12/29 02:10:10;;;;;;;54.20;16.55;;;6.80;99.90;;;;;;5106591;28;20088;-83
2021/12/29 02:12:37;;;;;;;57.85;17.48;;;6.80;99.90;;;;;;5098500;28;20050;-83
2021/12/29 02:15:07;;;;;;;53.38;14.05;;;6.80;99.90;;;;;;5100194;27;20058;-83
2021/12/29 02:17:33;;;;;;;49.72;15.13;;;6.80;99.90;;;;;;5102246;27;20038;-84
2021/12/29 02:20:01;;;;;;;56.97;15.70;;;6.70;99.90;;;;;;5105469;27;20133;-84
2021/12/29 02:22:48;;;;;;;48.50;15.55;;;6.80;99.90;;;;;;5134710;27;20378;-84
2021/12/29 02:28:01;;;;;;;46.13;14.75;;;6.80;99.90;;;;;;5139276;27;20066;-85
2021/12/29 02:30:27;;;;;;;40.78;13.63;;;6.80;99.90;;;;;;5121745;27;20027;-86
2021/12/29 02:33:00;;;;;;;37.95;12.23;;;6.80;99.90;;;;;;5121803;27;20027;-86
2021/12/29 02:35:26;;;;;;;47.72;14.98;;;6.80;99.90;;;;;;5114062;27;20487;-86
2021/12/29 02:37:53;;;;;;;52.22;15.57;;;6.80;99.90;;;;;;5102316;27;20073;-85
2021/12/29 02:40:18;;;;;;;46.97;14.65;;;6.80;99.90;;;;;;5135290;27;20047;-86
2021/12/29 02:42:44;;;;;;;43.08;13.77;;;6.70;99.90;;;;;;5116388;27;20042;-85
2021/12/29 02:45:17;;;;;;;48.63;13.48;;;6.60;99.90;;;;;;5121033;27;20065;-84
2021/12/29 02:47:43;;;;;;;41.20;12.50;;;6.70;99.90;;;;;;5101422;27;20353;-84
2021/12/29 02:50:10;;;;;;;47.58;15.82;;;6.70;99.90;;;;;;5101352;27;20042;-84
2021/12/29 02:52:36;;;;;;;54.35;13.85;;;6.80;99.90;;;;;;5087470;27;20047;-84
2021/12/29 02:55:02;;;;;;;54.17;13.07;;;6.80;99.90;;;;;;5103924;27;20398;-85
2021/12/29 02:57:28;;;;;;;59.97;14.55;;;6.80;99.90;;;;;;5106687;27;20119;-84
2021/12/29 02:59:53;;;;;;;52.10;13.63;;;6.90;99.90;;;;;;5081983;27;20058;-84
2021/12/29 03:02:20;;;;;;;54.22;14.18;;;6.90;99.90;;;;;;5116663;27;20061;-84
2021/12/29 03:04:46;;;;;;;53.42;13.88;;;6.90;99.90;;;;;;5117908;27;20039;-85
2021/12/29 03:07:12;;;;;;;47.72;13.40;;;7.00;99.90;;;;;;5117863;27;20053;-84
2021/12/29 03:09:38;;;;;;;46.80;14.18;;;7.00;99.90;;;;;;5100886;27;20042;-84
2021/12/29 03:12:04;;;;;;;53.45;15.15;;;6.90;99.90;;;;;;5111068;27;20111;-84
2021/12/29 03:14:30;;;;;;;52.75;15.63;;;7.00;99.90;;;;;;5107751;27;20475;-85
2021/12/29 03:16:55;;;;;;;54.20;15.82;;;7.00;99.90;;;;;;5117506;27;20064;-84
2021/12/29 03:19:21;;;;;;;51.28;17.67;;;7.10;99.90;;;;;;5104596;27;20077;-85
2021/12/29 03:21:47;;;;;;;51.97;19.75;;;7.00;99.90;;;;;;5102541;27;20042;-84
2021/12/29 03:24:14;;;;;;;41.97;15.07;;;7.00;99.90;;;;;;5117034;27;20502;-85
2021/12/29 03:26:40;;;;;;;48.38;18.40;;;7.00;99.90;;;;;;5101985;27;20122;-84
2021/12/29 03:29:07;;;;;;;42.95;16.20;;;7.00;99.90;;;;;;5120541;27;20125;-84
2021/12/29 03:31:37;;;;;;;49.95;18.63;;;7.00;99.90;;;;;;5120775;27;20035;-84
2021/12/29 03:34:03;;;;;;;53.88;18.30;;;6.90;99.90;;;;;;5099657;27;20039;-84
2021/12/29 03:36:29;;;;;;;55.33;17.13;;;6.80;99.90;;;;;;5103330;27;20079;-84
2021/12/29 03:38:56;;;;;;;55.30;17.67;;;6.80;99.90;;;;;;5088826;27;20049;-84
2021/12/29 03:41:23;;;;;;;50.45;15.77;;;6.70;99.90;;;;;;5102333;27;20053;-85
2021/12/29 03:43:49;;;;;;;65.32;17.45;;;6.60;99.90;;;;;;5100446;27;20043;-86
2021/12/29 03:46:15;;;;;;;49.05;17.23;;;6.60;99.90;;;;;;5106847;27;20071;-84
2021/12/29 03:48:43;;;;;;;62.65;17.42;;;6.50;99.90;;;;;;5121985;27;20039;-84
2021/12/29 03:51:10;;;;;;;55.15;16.92;;;6.50;99.90;;;;;;5127751;27;20425;-84
2021/12/29 03:53:36;;;;;;;65.90;18.35;;;6.50;99.90;;;;;;5099725;27;20043;-85
2021/12/29 03:56:03;;;;;;;50.15;16.25;;;6.50;99.90;;;;;;5105142;27;20375;-85
2021/12/29 03:58:29;;;;;;;52.92;16.45;;;6.40;99.90;;;;;;5100153;27;20500;-84
2021/12/29 04:01:02;;;;;;;55.22;16.88;;;6.40;99.90;;;;;;5115739;27;20064;-84
2021/12/29 04:03:28;;;;;;;49.78;15.48;;;6.40;99.90;;;;;;5102753;28;20063;-84
2021/12/29 04:05:54;;;;;;;47.80;15.77;;;6.50;99.90;;;;;;5092819;28;20050;-84
2021/12/29 04:08:20;;;;;;;51.03;14.73;;;6.50;99.90;;;;;;5079336;28;20059;-84
2021/12/29 04:10:45;;;;;;;51.88;14.65;;;6.40;99.90;;;;;;5118257;27;20040;-84
2021/12/29 04:13:11;;;;;;;46.08;15.25;;;6.40;99.90;;;;;;5113281;28;20044;-84
2021/12/29 04:15:38;;;;;;;56.50;16.45;;;6.40;99.90;;;;;;5092963;28;20042;-84
2021/12/29 04:18:14;;;;;;;46.72;13.40;;;6.40;99.90;;;;;;5064540;28;20039;-84
2021/12/29 04:20:55;;;;;;;51.47;16.05;;;6.50;99.90;;;;;;5093102;28;20083;-84
2021/12/29 04:23:22;;;;;;;64.13;16.83;;;6.50;99.90;;;;;;5111597;28;20069;-85
2021/12/29 04:25:53;;;;;;;62.40;18.98;;;6.60;99.90;;;;;;5076721;28;20117;-85
2021/12/29 04:28:23;;;;;;;67.30;20.33;;;6.60;99.90;;;;;;5099201;27;20034;-84
2021/12/29 04:31:08;;;;;;;80.68;22.20;;;6.60;99.90;;;;;;5122395;27;20043;-84
2021/12/29 04:33:37;;;;;;;91.65;21.65;;;6.70;99.90;;;;;;5113935;27;20048;-85
2021/12/29 04:36:04;;;;;;;93.70;21.40;;;6.70;99.90;;;;;;5092334;28;20089;-85
2021/12/29 04:38:30;;;;;;;88.82;20.02;;;6.80;99.90;;;;;;5069268;27;20423;-85
2021/12/29 04:40:57;;;;;;;90.38;20.73;;;6.80;99.90;;;;;;5113769;27;20047;-90
2021/12/29 04:43:24;;;;;;;85.93;19.45;;;6.80;99.90;;;;;;5131944;27;20043;-85
2021/12/29 04:45:50;;;;;;;89.60;20.40;;;6.90;99.90;;;;;;5088185;28;20051;-85
2021/12/29 04:48:17;;;;;;;100.00;19.38;;;6.90;99.90;;;;;;5096304;28;20051;-84
2021/12/29 04:50:53;;;;;;;96.15;20.20;;;6.90;99.90;;;;;;5091917;28;20349;-85
2021/12/29 04:53:21;;;;;;;98.93;22.70;;;6.90;99.90;;;;;;5116080;27;20047;-84
2021/12/29 04:55:49;;;;;;;102.60;23.67;;;7.00;99.90;;;;;;5110976;28;20032;-85
2021/12/29 04:58:18;;;;;;;101.15;23.98;;;7.00;99.90;;;;;;5103259;28;20551;-84
2021/12/29 05:00:45;;;;;;;203.15;30.15;;;7.00;99.90;;;;;;5085256;28;20040;-85
2021/12/29 05:03:11;;;;;;;121.22;26.33;;;7.00;99.90;;;;;;5103322;28;20059;-85
2021/12/29 05:10:47;;;;;;;127.28;26.83;;;7.10;99.90;;;;;;5117548;28;20090;-85
2021/12/29 05:13:14;;;;;;;134.25;27.05;;;7.10;99.90;;;;;;5092297;28;20043;-85
2021/12/29 05:15:40;;;;;;;129.55;25.48;;;7.00;99.90;;;;;;5087847;28;20040;-84
2021/12/29 05:18:06;;;;;;;151.07;28.45;;;7.10;99.90;;;;;;5096425;28;20039;-85
2021/12/29 05:20:32;;;;;;;138.68;27.95;;;7.10;99.90;;;;;;5085498;28;20071;-84
2021/12/29 05:22:59;;;;;;;131.40;26.95;;;7.10;99.90;;;;;;5094460;28;20499;-84
2021/12/29 05:25:26;;;;;;;145.60;26.83;;;7.10;99.90;;;;;;5105860;28;20472;-85
2021/12/29 05:27:52;;;;;;;134.05;27.85;;;7.10;99.90;;;;;;5105417;28;20096;-84
2021/12/29 05:30:18;;;;;;;127.90;26.77;;;7.10;99.90;;;;;;5075185;28;20040;-84
2021/12/29 05:32:44;;;;;;;147.57;28.73;;;7.10;99.90;;;;;;5104355;28;20039;-85
2021/12/29 05:35:11;;;;;;;148.15;27.80;;;7.00;99.90;;;;;;5127931;28;20088;-84
2021/12/29 05:37:37;;;;;;;155.18;28.25;;;7.00;99.90;;;;;;5132519;28;20038;-87
2021/12/29 05:40:05;;;;;;;149.15;27.23;;;7.00;99.90;;;;;;5108320;28;20052;-86
2021/12/29 05:42:33;;;;;;;162.55;28.45;;;7.00;99.90;;;;;;5111845;28;20425;-84
2021/12/29 05:45:07;;;;;;;181.63;27.67;;;7.00;99.90;;;;;;5095634;28;20070;-85
2021/12/29 05:47:33;;;;;;;204.52;28.40;;;7.00;99.90;;;;;;5107305;28;20173;-84
2021/12/29 05:49:59;;;;;;;199.77;26.52;;;7.00;99.90;;;;;;5078192;28;20504;-85
2021/12/29 05:52:24;;;;;;;141.23;23.33;;;7.00;99.90;;;;;;5074537;28;20047;-85
2021/12/29 05:54:50;;;;;;;167.38;25.85;;;7.00;99.90;;;;;;5074819;28;20500;-84
2021/12/29 05:57:16;;;;;;;245.82;28.63;;;7.00;99.90;;;;;;5091817;28;20047;-85
2021/12/29 05:59:42;;;;;;;134.10;24.40;;;7.00;99.90;;;;;;5098123;28;20047;-84
2021/12/29 06:02:08;;;;;;;122.47;24.75;;;7.00;99.90;;;;;;5098824;27;20131;-86
2021/12/29 06:04:34;;;;;;;128.20;24.55;;;7.00;99.90;;;;;;5121844;27;20467;-84
2021/12/29 06:07:00;;;;;;;140.43;25.45;;;7.10;99.90;;;;;;5102158;27;20039;-84
2021/12/29 06:09:27;;;;;;;145.40;27.33;;;7.10;99.90;;;;;;5081684;28;20531;-84
2021/12/29 06:11:52;;;;;;;113.68;23.08;;;7.10;99.90;;;;;;5098788;27;20049;-85
2021/12/29 06:14:18;;;;;;;116.07;24.27;;;7.10;99.90;;;;;;5135863;27;20387;-84
2021/12/29 06:16:44;;;;;;;127.18;25.92;;;7.10;99.90;;;;;;5087684;28;20548;-85
2021/12/29 06:19:10;;;;;;;101.72;23.98;;;7.10;99.90;;;;;;5115656;28;20050;-85
2021/12/29 06:21:36;;;;;;;108.15;24.02;;;7.10;99.90;;;;;;5113745;28;20047;-85
2021/12/29 06:24:02;;;;;;;99.25;21.20;;;7.10;99.90;;;;;;5111862;28;20038;-85
2021/12/29 06:26:28;;;;;;;77.40;18.90;;;7.10;99.90;;;;;;5119741;27;21018;-84
2021/12/29 06:28:53;;;;;;;89.35;20.15;;;7.00;99.90;;;;;;5098572;28;20134;-84
2021/12/29 06:31:19;;;;;;;82.82;20.15;;;7.10;99.90;;;;;;5127761;27;20077;-84
2021/12/29 06:33:46;;;;;;;102.28;21.20;;;7.00;99.90;;;;;;5132164;27;20189;-85
2021/12/29 06:36:12;;;;;;;97.50;21.42;;;6.90;99.90;;;;;;5101748;27;20079;-85
2021/12/29 06:38:38;;;;;;;84.15;20.05;;;7.00;99.90;;;;;;5118010;27;20125;-84
2021/12/29 06:41:03;;;;;;;92.78;22.95;;;7.00;99.90;;;;;;5097423;27;20040;-88
2021/12/29 06:43:29;;;;;;;98.63;24.08;;;7.00;99.90;;;;;;5081787;28;20475;-86
2021/12/29 06:45:55;;;;;;;85.45;21.83;;;7.10;99.90;;;;;;5125761;27;20095;-85
2021/12/29 06:48:25;;;;;;;111.38;24.88;;;7.10;99.90;;;;;;5100961;27;20066;-88
2021/12/29 06:50:57;;;;;;;97.95;23.42;;;7.10;99.90;;;;;;5103925;27;20069;-86
2021/12/29 06:53:23;;;;;;;110.60;24.08;;;7.20;99.90;;;;;;5086879;27;20035;-84
2021/12/29 06:55:48;;;;;;;100.38;23.77;;;7.20;99.90;;;;;;5076454;27;20039;-85
2021/12/29 06:58:14;;;;;;;125.60;23.92;;;7.20;99.90;;;;;;5080915;28;20044;-84
2021/12/29 07:00:40;;;;;;;139.48;24.27;;;7.20;99.90;;;;;;5122489;27;20035;-83
2021/12/29 07:03:06;;;;;;;126.03;21.02;;;7.20;99.90;;;;;;5075627;28;20054;-86
2021/12/29 07:05:32;;;;;;;164.77;23.85;;;7.20;99.90;;;;;;5080365;28;20089;-89
2021/12/29 07:07:58;;;;;;;128.85;20.83;;;7.10;99.90;;;;;;5111577;28;20039;-86
2021/12/29 07:10:24;;;;;;;119.40;20.13;;;7.20;99.90;;;;;;5105948;28;20524;-83
2021/12/29 07:12:50;;;;;;;117.93;20.15;;;7.20;99.90;;;;;;5077282;28;20126;-83
2021/12/29 07:15:17;;;;;;;133.18;21.20;;;7.20;99.90;;;;;;5100106;28;20130;-84
2021/12/29 07:17:43;;;;;;;128.18;21.48;;;7.20;99.90;;;;;;5114237;28;20472;-83
2021/12/29 07:20:09;;;;;;;172.23;20.73;;;7.20;99.90;;;;;;5096490;28;20536;-83
2021/12/29 07:22:35;;;;;;;205.80;21.20;;;7.20;99.90;;;;;;5096799;28;20069;-83
2021/12/29 07:25:01;;;;;;;230.95;22.20;;;7.20;99.90;;;;;;5107829;28;20039;-81
2021/12/29 07:27:27;;;;;;;169.52;21.27;;;7.20;99.90;;;;;;5096463;28;20043;-83
2021/12/29 07:29:52;;;;;;;200.38;23.60;;;7.20;99.90;;;;;;5079878;28;20046;-83
2021/12/29 07:32:19;;;;;;;218.48;21.95;;;7.30;99.90;;;;;;5096224;28;20051;-81
2021/12/29 07:34:45;;;;;;;212.93;20.38;;;7.20;99.90;;;;;;5076724;28;20138;-83
2021/12/29 07:37:12;;;;;;;290.35;25.58;;;7.20;99.90;;;;;;5095949;28;20044;-84
2021/12/29 07:39:38;;;;;;;204.48;19.52;;;7.30;99.90;;;;;;5113299;28;20089;-85
2021/12/29 07:42:10;;;;;;;237.57;21.33;;;7.20;99.90;;;;;;5113699;28;20048;-81
2021/12/29 08:06:19;;;;;;;62.10;16.33;;;7.20;99.90;;;;;;5102467;27;1274285;-75
2021/12/29 08:08:45;;;;;;;52.80;14.77;;;7.40;99.90;;;;;;5129882;28;20485;-76
2021/12/29 08:11:11;;;;;;;64.80;15.27;;;7.40;99.90;;;;;;5127922;28;20068;-75
2021/12/29 08:13:37;;;;;;;59.15;13.95;;;7.40;99.90;;;;;;5117069;28;20155;-74
2021/12/29 08:16:03;;;;;;;48.75;12.73;;;7.40;99.90;;;;;;5129010;28;20047;-74
2021/12/29 08:18:29;;;;;;;46.17;12.93;;;7.40;99.90;;;;;;5122475;28;20058;-74
2021/12/29 08:20:54;;;;;;;53.63;13.15;;;7.40;99.90;;;;;;5124820;28;20130;-74
2021/12/29 08:23:20;;;;;;;51.10;14.43;;;7.30;99.90;;;;;;5112419;28;20039;-83
2021/12/29 08:25:46;;;;;;;44.88;14.38;;;7.30;99.90;;;;;;5124068;28;20442;-74
2021/12/29 08:28:12;;;;;;;48.10;13.88;;;7.40;99.90;;;;;;5118922;28;20035;-75
2021/12/29 08:30:38;;;;;;;44.25;12.75;;;7.30;99.90;;;;;;5127763;28;20055;-77
2021/12/29 08:33:05;;;;;;;62.63;14.25;;;7.40;99.90;;;;;;5103042;28;20417;-76
2021/12/29 08:35:31;;;;;;;55.28;13.00;;;7.30;99.90;;;;;;5099888;28;20047;-79
2021/12/29 08:37:57;;;;;;;55.90;14.18;;;7.40;99.90;;;;;;5122629;28;20047;-77
2021/12/29 08:40:24;;;;;;;59.63;13.20;;;7.40;99.90;;;;;;5111158;28;20039;-76
2021/12/29 08:42:50;;;;;;;61.03;12.98;;;7.40;99.90;;;;;;5127325;28;20071;-77
2021/12/29 08:45:18;;;;;;;67.13;12.93;;;7.40;99.90;;;;;;5120008;28;20093;-75
2021/12/29 08:47:45;;;;;;;52.60;11.57;;;7.40;99.90;;;;;;5122719;27;20446;-73
2021/12/29 08:50:13;;;;;;;54.60;12.82;;;7.50;99.90;;;;;;5123154;28;20043;-73
2021/12/29 08:52:40;;;;;;;38.60;11.32;;;7.40;99.90;;;;;;5124284;28;20393;-75
2021/12/29 08:55:08;;;;;;;44.50;11.63;;;7.40;99.90;;;;;;5117032;28;20459;-85
2021/12/29 08:57:33;;;;;;;43.10;11.10;;;7.40;99.90;;;;;;5118093;28;20425;-81
2021/12/29 09:00:00;;;;;;;37.28;10.65;;;7.40;99.90;;;;;;5126363;28;20044;-76
2021/12/29 09:02:26;;;;;;;43.00;11.63;;;7.40;99.90;;;;;;5122188;28;20542;-82
2021/12/29 09:04:52;;;;;;;58.58;13.00;;;7.40;99.90;;;;;;5111929;28;20052;-75
2021/12/29 09:07:18;;;;;;;46.33;12.07;;;7.40;99.90;;;;;;5103308;28;20051;-77
2021/12/29 09:09:44;;;;;;;37.53;10.32;;;7.40;99.90;;;;;;5112058;28;20417;-77
2021/12/29 09:12:10;;;;;;;41.28;11.70;;;7.40;99.90;;;;;;5097104;28;20056;-77
2021/12/29 09:14:35;;;;;;;35.63;10.43;;;7.40;99.90;;;;;;5107348;28;20047;-76
2021/12/29 09:17:02;;;;;;;41.70;10.23;;;7.40;99.90;;;;;;5105131;28;20051;-77
2021/12/29 09:19:28;;;;;;;41.50;9.65;;;7.40;99.90;;;;;;5107457;28;20035;-83
2021/12/29 09:21:56;;;;;;;39.58;8.70;;;7.40;99.90;;;;;;5101360;28;20043;-76
2021/12/29 09:24:21;;;;;;;28.27;9.48;;;7.50;99.90;;;;;;5088888;28;20042;-76
2021/12/29 09:26:47;;;;;;;39.42;10.38;;;7.50;99.90;;;;;;5097806;28;20044;-76
2021/12/29 09:29:13;;;;;;;35.78;10.02;;;7.50;99.90;;;;;;5077603;28;20060;-76
2021/12/29 09:31:39;;;;;;;29.20;7.15;;;7.50;99.90;;;;;;5095704;28;20079;-78
2021/12/29 09:34:06;;;;;;;36.95;8.70;;;7.50;99.90;;;;;;5096025;28;20046;-78
2021/12/29 09:36:32;;;;;;;29.25;7.90;;;7.50;99.90;;;;;;5113906;28;20036;-78
2021/12/29 09:39:00;;;;;;;31.90;7.40;;;7.50;99.90;;;;;;5113798;28;20051;-77
2021/12/29 09:41:26;;;;;;;28.17;7.88;;;7.50;99.90;;;;;;5108276;28;20044;-77
2021/12/29 09:43:52;;;;;;;31.35;8.60;;;7.50;99.90;;;;;;5115057;28;20124;-81
2021/12/29 09:46:18;;;;;;;37.80;10.80;;;7.50;99.90;;;;;;5093598;28;20052;-76
2021/12/29 09:48:45;;;;;;;32.67;10.18;;;7.50;99.90;;;;;;5085636;28;20097;-77
2021/12/29 09:51:12;;;;;;;29.52;9.95;;;7.50;99.90;;;;;;5111191;28;20054;-78
2021/12/29 09:53:40;;;;;;;36.45;10.85;;;7.60;99.90;;;;;;5096888;28;20100;-79
2021/12/29 09:56:06;;;;;;;29.35;11.05;;;7.60;99.90;;;;;;5113825;28;20070;-78
2021/12/29 09:58:31;;;;;;;39.17;10.95;;;7.60;99.90;;;;;;5080298;28;20514;-84
2021/12/29 10:01:01;;;;;;;46.38;10.50;;;7.60;99.90;;;;;;5080727;28;20043;-79
2021/12/29 10:03:28;;;;;;;43.08;11.32;;;7.60;99.90;;;;;;5093741;28;20093;-81
2021/12/29 10:05:56;;;;;;;33.33;9.40;;;7.60;99.90;;;;;;5109930;28;20509;-81
2021/12/29 10:08:29;;;;;;;34.25;9.20;;;7.60;99.90;;;;;;5104878;28;20123;-81
2021/12/29 10:11:00;;;;;;;42.50;9.52;;;7.60;99.90;;;;;;5113252;28;20127;-82
2021/12/29 10:13:32;;;;;;;31.35;9.65;;;7.60;99.90;;;;;;5112891;28;20035;-83
2021/12/29 10:16:08;;;;;;;31.48;8.38;;;7.70;99.90;;;;;;5095242;28;20059;-83
2021/12/29 10:18:37;;;;;;;35.28;8.95;;;7.70;99.90;;;;;;5111494;28;20055;-86
2021/12/29 10:21:25;;;;;;;33.63;9.23;;;7.60;99.90;;;;;;5112685;28;20452;-87
2021/12/29 10:23:54;;;;;;;34.70;9.77;;;7.70;99.90;;;;;;5112809;28;20040;-86
2021/12/29 10:26:23;;;;;;;40.33;8.73;;;7.70;99.90;;;;;;5112249;28;20400;-84
2021/12/29 10:28:55;;;;;;;46.38;9.02;;;7.70;99.90;;;;;;5109226;28;20489;-84
2021/12/29 10:31:26;;;;;;;28.42;8.38;;;7.70;99.90;;;;;;5113037;28;20048;-82
2021/12/29 10:33:56;;;;;;;29.27;7.80;;;7.70;99.90;;;;;;5113041;28;20051;-81
2021/12/29 10:36:22;;;;;;;39.90;8.68;;;7.70;99.90;;;;;;5096215;28;20058;-78
2021/12/29 10:39:10;;;;;;;35.80;8.00;;;7.70;99.90;;;;;;5110501;28;20051;-80
2021/12/29 10:41:56;;;;;;;33.63;7.53;;;7.70;99.90;;;;;;5107578;28;20099;-79
2021/12/29 10:44:43;;;;;;;34.08;8.40;;;7.70;99.90;;;;;;5109387;28;20047;-77
2021/12/29 10:47:31;;;;;;;35.08;7.68;;;7.70;99.90;;;;;;5107937;28;20071;-77
2021/12/29 10:50:04;;;;;;;39.13;7.57;;;7.70;99.90;;;;;;5110163;28;20400;-78
2021/12/29 10:52:32;;;;;;;39.13;7.22;;;7.70;99.90;;;;;;5102501;28;20079;-76
2021/12/29 10:54:58;;;;;;;34.17;7.68;;;7.60;99.90;;;;;;5097279;28;20275;-78
2021/12/29 10:57:23;;;;;;;35.83;7.45;;;7.70;99.90;;;;;;5083117;28;20478;-77
2021/12/29 10:59:57;;;;;;;32.72;7.13;;;7.70;99.90;;;;;;5102565;28;20487;-86
2021/12/29 11:02:27;;;;;;;30.88;7.50;;;7.70;99.90;;;;;;5108889;28;20115;-78
2021/12/29 11:04:55;;;;;;;38.63;7.95;;;7.70;99.90;;;;;;5111919;28;20048;-78
2021/12/29 11:07:28;;;;;;;29.60;7.47;;;7.70;99.90;;;;;;5112940;28;20512;-78
2021/12/29 11:09:55;;;;;;;30.58;7.38;;;7.70;99.90;;;;;;5112620;28;20044;-78
2021/12/29 11:12:23;;;;;;;31.88;7.65;;;7.70;99.90;;;;;;5106004;28;20090;-78
2021/12/29 11:14:53;;;;;;;39.75;7.65;;;7.70;99.90;;;;;;5106863;28;20553;-78
2021/12/29 11:17:25;;;;;;;40.97;9.40;;;7.70;99.90;;;;;;5103502;28;20044;-78
2021/12/29 11:19:56;;;;;;;36.35;8.82;;;7.70;99.90;;;;;;5110370;28;20040;-79
2021/12/29 11:22:27;;;;;;;37.03;8.25;;;7.70;99.90;;;;;;5104729;28;20173;-78
2021/12/29 11:24:56;;;;;;;38.15;7.60;;;7.80;99.90;;;;;;5093750;28;20108;-78
2021/12/29 11:27:22;;;;;;;40.53;8.68;;;7.70;99.90;;;;;;5112034;28;20103;-78
2021/12/29 11:29:54;;;;;;;31.60;7.50;;;7.70;99.90;;;;;;5089692;28;20052;-77
2021/12/29 11:32:27;;;;;;;31.52;7.15;;;7.70;99.90;;;;;;5106023;28;20047;-78
2021/12/29 11:35:12;;;;;;;31.45;7.75;;;7.70;99.90;;;;;;5106332;28;20387;-78
2021/12/29 11:37:54;;;;;;;35.38;8.52;;;7.70;99.90;;;;;;5102765;28;20039;-77
2021/12/29 11:40:26;;;;;;;29.13;7.43;;;7.80;99.90;;;;;;5102298;28;21760;-78
2021/12/29 11:42:53;;;;;;;33.22;7.65;;;7.70;99.90;;;;;;5105255;28;20040;-80
2021/12/29 11:45:20;;;;;;;43.38;9.23;;;7.80;99.90;;;;;;5108261;28;20040;-79
2021/12/29 11:47:46;;;;;;;37.05;8.57;;;7.80;99.90;;;;;;5094326;28;20408;-78
2021/12/29 11:50:26;;;;;;;30.42;8.55;;;7.70;99.90;;;;;;5112140;28;20131;-79
2021/12/29 11:53:10;;;;;;;42.75;8.63;;;7.80;99.90;;;;;;5104086;28;20051;-78
2021/12/29 11:55:53;;;;;;;37.65;8.77;;;7.80;99.90;;;;;;5117292;28;20100;-77
2021/12/29 11:58:26;;;;;;;41.42;8.80;;;7.80;99.90;;;;;;5112150;28;20119;-78
2021/12/29 12:01:08;;;;;;;40.08;9.27;;;7.80;99.90;;;;;;5111367;28;20075;-78
2021/12/29 12:03:40;;;;;;;30.55;8.02;;;7.80;99.90;;;;;;5111955;28;20047;-79
2021/12/29 12:06:08;;;;;;;27.63;8.50;;;7.80;99.90;;;;;;5104415;28;20051;-78
2021/12/29 12:08:34;;;;;;;28.95;7.35;;;7.80;99.90;;;;;;5109102;28;20075;-77
2021/12/29 12:11:01;;;;;;;30.20;7.45;;;7.80;99.90;;;;;;5111232;28;20523;-78
2021/12/29 12:13:35;;;;;;;31.55;7.75;;;7.80;99.90;;;;;;5085970;28;20044;-78
2021/12/29 12:16:13;;;;;;;25.58;6.75;;;7.80;99.90;;;;;;5101105;28;20048;-79
2021/12/29 12:18:56;;;;;;;31.02;7.03;;;7.80;99.90;;;;;;5106051;28;20476;-77
2021/12/29 12:21:39;;;;;;;25.67;6.18;;;7.80;99.90;;;;;;5090002;28;20054;-79
2021/12/29 12:24:18;;;;;;;22.02;6.80;;;7.80;99.90;;;;;;5109917;28;20401;-79
2021/12/29 12:26:54;;;;;;;24.73;6.18;;;7.80;99.90;;;;;;5108242;28;20073;-78
2021/12/29 12:29:21;;;;;;;27.50;6.20;;;7.80;99.90;;;;;;5104952;28;20071;-79
2021/12/29 12:32:04;;;;;;;23.20;6.50;;;7.80;99.90;;;;;;5094255;28;20119;-78
2021/12/29 12:34:30;;;;;;;23.98;6.38;;;7.90;99.90;;;;;;5098224;28;20048;-78
2021/12/29 12:36:56;;;;;;;17.73;6.00;;;7.90;99.90;;;;;;5091525;28;20177;-80
2021/12/29 12:39:22;;;;;;;30.02;6.80;;;7.90;99.90;;;;;;5104250;28;20648;-79
2021/12/29 12:41:53;;;;;;;24.83;7.07;;;7.90;99.90;;;;;;5111207;28;20116;-79
2021/12/29 12:44:34;;;;;;;18.45;6.55;;;7.90;99.90;;;;;;5107574;28;20103;-78
2021/12/29 12:47:12;;;;;;;18.40;6.18;;;7.90;99.90;;;;;;5109835;28;20052;-81
2021/12/29 12:49:52;;;;;;;18.98;6.63;;;7.90;99.90;;;;;;5113641;28;20043;-85
2021/12/29 12:52:20;;;;;;;20.38;6.75;;;8.00;99.90;;;;;;5109185;28;20077;-80
2021/12/29 12:54:56;;;;;;;19.92;6.57;;;8.00;99.90;;;;;;5111716;28;20075;-78
2021/12/29 12:57:26;;;;;;;21.25;7.15;;;8.00;99.90;;;;;;5114978;28;20085;-80
2021/12/29 12:59:54;;;;;;;17.10;6.93;;;8.10;99.90;;;;;;5113444;28;20054;-80
2021/12/29 13:02:24;;;;;;;20.40;7.03;;;8.00;99.90;;;;;;5085186;28;20059;-82
2021/12/29 13:05:02;;;;;;;17.30;6.78;;;8.00;99.90;;;;;;5097189;28;20847;-79
2021/12/29 13:07:28;;;;;;;18.50;6.75;;;8.00;99.90;;;;;;5097605;28;20135;-82
2021/12/29 13:09:54;;;;;;;16.58;7.30;;;7.90;99.90;;;;;;5083694;28;20048;-87